Time;durP1;ratioP1;P1;durP2;ratioP2;P2;SDS_P1;SDS_P2;PMS_P1;PMS_P2;Temp;Humidity;BMP_temperature;BMP_pressure;BME280_temperature;BME280_humidity;BME280_pressure;Samples;Min_cycle;Max_cycle;Signal;HPM_P1;HPM_P2
2022/05/06 00:00:12;;;;;;;14.17;12.23;;;;;;;11.23;100.00;100747.25;5063053;28;20291;-62
2022/05/06 00:02:37;;;;;;;15.00;11.93;;;;;;;11.21;100.00;100748.22;5067651;28;20181;-61
2022/05/06 00:05:04;;;;;;;15.50;12.30;;;;;;;11.17;100.00;100754.44;5053377;28;20176;-61
2022/05/06 00:07:29;;;;;;;13.50;10.80;;;;;;;11.09;100.00;100752.22;5051388;28;20184;-62
2022/05/06 00:09:55;;;;;;;14.20;12.63;;;;;;;11.03;100.00;100753.31;5057938;28;20547;-62
2022/05/06 00:12:20;;;;;;;13.67;11.30;;;;;;;10.86;100.00;100758.41;5045164;28;20286;-61
2022/05/06 00:14:46;;;;;;;14.20;11.40;;;;;;;10.85;100.00;100756.75;5073484;28;20315;-62
2022/05/06 00:17:12;;;;;;;14.23;11.10;;;;;;;10.76;100.00;100758.81;5072906;28;20169;-61
2022/05/06 00:19:37;;;;;;;14.17;12.00;;;;;;;10.79;100.00;100757.84;5071332;28;20609;-62
2022/05/06 00:22:03;;;;;;;17.30;11.87;;;;;;;10.71;100.00;100755.63;5061955;28;20241;-62
2022/05/06 00:24:28;;;;;;;12.73;10.83;;;;;;;10.55;100.00;100758.03;5071993;28;20216;-62
2022/05/06 00:26:55;;;;;;;15.77;11.50;;;;;;;10.57;100.00;100753.66;5072645;28;20695;-60
2022/05/06 00:29:20;;;;;;;14.87;11.03;;;;;;;10.58;100.00;100754.47;5071761;28;20180;-61
2022/05/06 00:31:45;;;;;;;15.33;10.93;;;;;;;10.56;100.00;100757.13;5061822;28;20656;-61
2022/05/06 00:34:11;;;;;;;12.00;9.43;;;;;;;10.51;100.00;100753.94;5063080;28;20575;-62
2022/05/06 00:36:36;;;;;;;13.20;10.20;;;;;;;10.43;100.00;100749.13;5061307;28;20192;-62
2022/05/06 00:39:02;;;;;;;12.97;9.97;;;;;;;10.37;100.00;100749.41;5068259;28;20212;-60
2022/05/06 00:41:27;;;;;;;12.03;9.63;;;;;;;10.28;100.00;100760.03;5043537;28;20229;-63
2022/05/06 00:43:52;;;;;;;11.13;9.13;;;;;;;10.26;100.00;100759.28;5057432;28;20620;-62
2022/05/06 00:46:18;;;;;;;10.27;8.57;;;;;;;10.24;100.00;100758.50;5055534;28;20272;-62
2022/05/06 00:48:48;;;;;;;10.63;9.10;;;;;;;10.11;100.00;100761.59;5071062;28;20183;-62
2022/05/06 00:51:14;;;;;;;9.60;8.57;;;;;;;10.09;100.00;100762.56;5058033;28;20239;-61
2022/05/06 00:53:43;;;;;;;12.50;8.20;;;;;;;10.03;100.00;100761.06;5071701;28;20192;-62
2022/05/06 00:56:09;;;;;;;11.87;8.63;;;;;;;9.91;100.00;100761.56;5070669;28;20180;-61
2022/05/06 00:58:35;;;;;;;11.43;8.50;;;;;;;9.94;100.00;100758.91;5070896;28;20281;-61
2022/05/06 01:01:02;;;;;;;9.00;8.03;;;;;;;9.97;100.00;100762.19;5061510;28;20667;-61
2022/05/06 01:03:28;;;;;;;8.47;7.57;;;;;;;9.99;100.00;100768.06;5050654;28;20527;-60
2022/05/06 01:05:54;;;;;;;11.47;8.10;;;;;;;9.98;100.00;100765.56;5052556;28;20264;-61
2022/05/06 01:08:19;;;;;;;9.27;8.27;;;;;;;9.97;100.00;100763.88;5062831;28;20180;-60
2022/05/06 01:10:45;;;;;;;9.07;7.70;;;;;;;9.89;100.00;100760.81;5061551;28;20550;-61
2022/05/06 01:13:10;;;;;;;9.37;8.30;;;;;;;9.74;100.00;100760.53;5056884;28;20185;-61
2022/05/06 01:15:36;;;;;;;9.70;7.53;;;;;;;9.73;100.00;100764.00;5051737;28;20704;-61
2022/05/06 01:18:02;;;;;;;10.70;8.13;;;;;;;9.76;100.00;100757.91;5051774;28;20181;-61
2022/05/06 01:20:27;;;;;;;8.93;7.33;;;;;;;9.80;100.00;100756.91;5059762;28;20228;-61
2022/05/06 01:22:56;;;;;;;9.57;7.60;;;;;;;9.77;100.00;100759.56;5071199;28;20522;-61
2022/05/06 01:25:21;;;;;;;8.27;7.10;;;;;;;9.76;100.00;100760.47;5072120;28;20180;-61
2022/05/06 01:27:56;;;;;;;9.03;7.17;;;;;;;9.74;99.92;100768.25;5071696;28;20230;-61
2022/05/06 01:30:29;;;;;;;7.40;6.43;;;;;;;9.71;99.59;100762.38;5059286;28;20658;-62
2022/05/06 01:32:56;;;;;;;8.73;6.90;;;;;;;9.65;99.27;100766.03;5057858;28;20176;-61
2022/05/06 01:35:22;;;;;;;8.83;7.03;;;;;;;9.64;98.97;100760.06;5070771;28;20211;-61
2022/05/06 01:37:52;;;;;;;9.60;6.30;;;;;;;9.53;98.52;100768.19;5071285;28;20200;-61
2022/05/06 01:40:20;;;;;;;9.53;6.70;;;;;;;9.53;97.37;100755.34;5059400;28;20200;-62
2022/05/06 01:42:46;;;;;;;7.63;6.07;;;;;;;9.39;97.24;100756.78;5057496;28;20663;-62
2022/05/06 01:45:16;;;;;;;8.10;6.27;;;;;;;9.51;96.30;100761.44;5064344;28;20177;-61
2022/05/06 01:47:42;;;;;;;8.47;6.87;;;;;;;9.45;95.99;100765.09;5063839;28;20185;-62
2022/05/06 01:50:09;;;;;;;6.63;5.97;;;;;;;9.45;95.14;100759.13;5062101;28;20268;-62
2022/05/06 01:52:37;;;;;;;9.23;7.00;;;;;;;9.38;94.78;100766.25;5086244;28;20218;-61
2022/05/06 01:55:05;;;;;;;8.43;6.33;;;;;;;9.34;95.52;100769.81;5070323;28;20180;-62
2022/05/06 01:57:31;;;;;;;9.33;6.47;;;;;;;9.34;94.89;100759.53;5070723;28;20197;-62
2022/05/06 01:59:56;;;;;;;7.00;5.77;;;;;;;9.41;94.31;100766.09;5071589;28;20251;-62
2022/05/06 02:02:21;;;;;;;7.13;6.23;;;;;;;9.28;96.46;100767.47;5057204;28;20216;-62
2022/05/06 02:07:30;;;;;;;6.20;5.60;;;;;;;9.27;97.13;100760.69;5070857;28;20218;-61
2022/05/06 02:09:55;;;;;;;8.90;6.30;;;;;;;9.27;97.33;100766.66;5071231;28;20196;-60
2022/05/06 02:12:20;;;;;;;7.43;6.10;;;;;;;9.12;97.21;100767.25;5060316;28;20236;-61
2022/05/06 02:14:46;;;;;;;10.20;6.47;;;;;;;9.11;97.69;100761.25;5073372;28;20278;-61
2022/05/06 02:17:12;;;;;;;6.87;6.03;;;;;;;9.07;98.59;100762.28;5075188;28;20274;-62
2022/05/06 02:19:37;;;;;;;8.03;5.93;;;;;;;9.06;99.06;100760.59;5075138;28;20204;-62
2022/05/06 02:22:02;;;;;;;8.87;6.40;;;;;;;9.02;98.60;100759.06;5063856;28;20223;-62
2022/05/06 02:24:27;;;;;;;8.83;6.47;;;;;;;8.96;98.90;100759.28;5075795;28;20184;-61
2022/05/06 02:26:53;;;;;;;6.80;5.97;;;;;;;8.94;99.39;100758.50;5074765;28;20173;-61
2022/05/06 02:29:18;;;;;;;8.53;6.30;;;;;;;8.99;98.75;100760.00;5075508;28;20284;-62
2022/05/06 02:34:27;;;;;;;7.53;6.10;;;;;;;8.90;98.19;100759.50;5075474;28;20178;-61
2022/05/06 02:36:52;;;;;;;7.47;6.07;;;;;;;8.92;98.18;100762.84;5074593;28;20539;-61
2022/05/06 02:39:18;;;;;;;7.17;6.27;;;;;;;8.86;97.89;100761.34;5073576;28;20209;-60
2022/05/06 02:41:44;;;;;;;7.07;6.37;;;;;;;8.82;97.66;100757.19;5063173;28;20218;-62
2022/05/06 02:44:09;;;;;;;6.67;5.97;;;;;;;8.70;98.49;100758.50;5053244;28;20667;-62
2022/05/06 02:46:35;;;;;;;5.80;5.17;;;;;;;8.72;98.89;100764.44;5070142;28;20184;-60
2022/05/06 02:49:01;;;;;;;7.17;6.47;;;;;;;8.65;98.36;100763.78;5074882;28;20191;-62
2022/05/06 02:51:30;;;;;;;7.77;6.03;;;;;;;8.68;97.86;100765.41;5074199;28;20330;-62
2022/05/06 02:53:56;;;;;;;8.10;6.27;;;;;;;8.57;98.29;100768.38;5073663;28;20665;-62
2022/05/06 02:56:22;;;;;;;7.13;6.10;;;;;;;8.47;99.11;100759.31;5073271;28;20173;-62
2022/05/06 02:58:48;;;;;;;6.67;5.50;;;;;;;8.52;99.02;100760.84;5073432;28;20200;-61
2022/05/06 03:01:13;;;;;;;8.97;5.60;;;;;;;8.54;99.43;100759.03;5053195;28;20227;-61
2022/05/06 03:03:38;;;;;;;8.10;5.00;;;;;;;8.50;99.39;100759.22;5073890;28;20187;-60
2022/05/06 03:06:04;;;;;;;12.00;5.90;;;;;;;8.47;98.30;100757.59;5072746;28;20180;-62
2022/05/06 03:08:29;;;;;;;6.67;5.73;;;;;;;8.46;99.28;100755.03;5074432;28;20181;-62
2022/05/06 03:10:54;;;;;;;10.23;5.83;;;;;;;8.43;98.68;100745.72;5062661;28;20308;-62
2022/05/06 03:13:19;;;;;;;7.93;5.50;;;;;;;8.43;98.53;100753.41;5056556;28;20638;-62
2022/05/06 03:15:45;;;;;;;8.27;5.53;;;;;;;8.33;98.76;100759.78;5063426;28;20318;-62
2022/05/06 03:18:11;;;;;;;8.40;6.00;;;;;;;8.46;98.72;100755.03;5073076;28;20255;-62
2022/05/06 03:20:38;;;;;;;7.80;5.43;;;;;;;8.43;98.07;100762.84;5062403;28;20235;-62
2022/05/06 03:23:04;;;;;;;9.17;5.40;;;;;;;8.42;97.95;100768.88;5064993;28;20622;-62
2022/05/06 03:25:30;;;;;;;7.87;5.20;;;;;;;8.39;98.69;100764.69;5054288;28;20177;-61
2022/05/06 03:28:07;;;;;;;6.43;5.47;;;;;;;8.36;99.00;100768.19;5053780;28;20185;-62
2022/05/06 03:30:39;;;;;;;7.60;5.40;;;;;;;8.31;98.95;100767.53;5021279;28;20224;-62
2022/05/06 03:33:08;;;;;;;8.43;4.67;;;;;;;8.33;98.97;100760.59;5040956;28;20256;-61
2022/05/06 03:35:35;;;;;;;8.53;5.67;;;;;;;8.32;99.36;100763.22;5053814;28;20180;-62
2022/05/06 03:38:01;;;;;;;6.60;5.43;;;;;;;8.33;100.00;100762.34;5053494;28;20230;-61
2022/05/06 03:40:26;;;;;;;6.30;5.23;;;;;;;8.26;100.00;100768.56;5057613;28;20231;-61
2022/05/06 03:42:51;;;;;;;6.20;5.53;;;;;;;8.27;100.00;100757.41;5065530;28;20185;-63
2022/05/06 03:45:17;;;;;;;7.30;5.30;;;;;;;8.29;100.00;100760.78;5073867;28;20184;-61
2022/05/06 03:47:43;;;;;;;6.97;5.47;;;;;;;8.20;100.00;100765.31;5073175;28;20183;-62
2022/05/06 03:52:53;;;;;;;6.40;4.83;;;;;;;8.15;100.00;100771.47;5072733;28;20263;-62
2022/05/06 03:55:19;;;;;;;6.03;5.43;;;;;;;8.00;100.00;100755.75;5073874;28;20271;-62
2022/05/06 03:57:44;;;;;;;7.03;5.37;;;;;;;7.95;100.00;100762.75;5071700;28;20609;-62
2022/05/06 04:00:11;;;;;;;6.83;5.27;;;;;;;8.03;100.00;100765.06;5064127;28;20191;-62
2022/05/06 04:02:37;;;;;;;7.03;5.67;;;;;;;7.95;100.00;100764.47;5076055;28;20622;-62
2022/05/06 04:05:04;;;;;;;7.87;6.23;;;;;;;7.91;100.00;100767.13;5073598;28;20187;-62
2022/05/06 04:07:29;;;;;;;8.17;5.37;;;;;;;7.93;100.00;100769.63;5071418;28;20271;-61
2022/05/06 04:09:54;;;;;;;8.10;5.57;;;;;;;7.97;100.00;100776.31;5073440;28;20295;-62
2022/05/06 04:12:21;;;;;;;6.73;5.43;;;;;;;8.00;100.00;100772.81;5061381;28;20682;-62
2022/05/06 04:14:46;;;;;;;7.63;5.20;;;;;;;8.06;100.00;100776.03;5073211;28;20906;-61
2022/05/06 04:17:12;;;;;;;8.73;5.60;;;;;;;8.06;100.00;100775.19;5072714;28;20198;-62
2022/05/06 04:19:37;;;;;;;8.00;5.23;;;;;;;8.10;100.00;100781.03;5073254;28;20559;-61
2022/05/06 04:24:49;;;;;;;9.00;5.27;;;;;;;8.12;100.00;100780.09;5073198;28;20183;-62
2022/05/06 04:27:15;;;;;;;13.77;6.10;;;;;;;8.08;100.00;100781.94;5072632;28;20319;-63
2022/05/06 04:29:40;;;;;;;6.47;5.23;;;;;;;8.21;100.00;100787.50;5072750;28;20630;-62
2022/05/06 04:32:06;;;;;;;5.30;4.67;;;;;;;8.28;99.66;100775.28;5061670;28;20258;-62
2022/05/06 04:34:31;;;;;;;5.03;4.53;;;;;;;8.42;98.45;100795.31;5073104;28;20190;-63
2022/05/06 04:36:56;;;;;;;5.90;4.40;;;;;;;8.48;97.58;100795.16;5067139;28;20624;-61
2022/05/06 04:39:21;;;;;;;7.63;5.27;;;;;;;8.54;97.64;100797.50;5052810;28;20217;-62
2022/05/06 04:41:48;;;;;;;5.83;4.83;;;;;;;8.60;97.23;100793.91;5064066;28;20223;-62
2022/05/06 04:44:13;;;;;;;7.40;5.50;;;;;;;8.65;96.09;100807.38;5054415;28;20184;-62
2022/05/06 04:46:38;;;;;;;13.20;5.90;;;;;;;8.68;97.79;100794.47;5063868;28;20200;-61
2022/05/06 04:49:04;;;;;;;6.43;5.37;;;;;;;8.83;97.03;100808.47;5072770;28;20176;-60
2022/05/06 04:51:29;;;;;;;7.27;6.00;;;;;;;8.95;95.90;100808.91;5061354;28;20232;-62
2022/05/06 04:53:55;;;;;;;5.83;4.73;;;;;;;9.06;95.79;100811.94;5072261;28;20183;-61
2022/05/06 04:56:22;;;;;;;5.60;4.23;;;;;;;9.20;95.15;100816.53;5072039;28;20185;-61
2022/05/06 04:58:48;;;;;;;8.83;4.40;;;;;;;9.35;93.56;100815.13;5067401;28;20209;-63
2022/05/06 05:01:13;;;;;;;5.37;4.80;;;;;;;9.47;92.50;100814.66;5055897;28;20765;-61
2022/05/06 05:03:39;;;;;;;6.87;5.00;;;;;;;9.65;91.35;100814.84;5078695;28;20212;-62
2022/05/06 05:06:05;;;;;;;5.73;5.13;;;;;;;9.77;90.06;100811.78;5069435;28;20255;-62
2022/05/06 05:08:30;;;;;;;5.87;4.80;;;;;;;9.91;89.27;100818.09;5054351;28;20243;-61
2022/05/06 05:11:02;;;;;;;9.17;5.30;;;;;;;10.00;88.88;100815.19;5048388;28;20676;-62
2022/05/06 05:13:28;;;;;;;11.30;5.53;;;;;;;10.18;87.86;100817.00;5055270;28;20696;-63
2022/05/06 05:15:53;;;;;;;6.87;4.97;;;;;;;10.33;86.60;100822.38;5054296;28;20217;-62
2022/05/06 05:18:20;;;;;;;8.83;4.80;;;;;;;10.43;86.75;100825.44;5054360;28;20596;-61
2022/05/06 05:20:45;;;;;;;6.63;5.13;;;;;;;10.52;85.84;100830.22;5047161;28;20220;-61
2022/05/06 05:23:10;;;;;;;5.60;5.00;;;;;;;10.62;86.29;100823.75;5062501;28;20187;-61
2022/05/06 05:25:36;;;;;;;6.47;5.27;;;;;;;10.81;84.55;100823.78;5053715;28;20579;-61
2022/05/06 05:28:01;;;;;;;6.77;4.83;;;;;;;10.90;85.80;100827.72;5049802;28;20194;-64
2022/05/06 05:30:26;;;;;;;7.40;5.03;;;;;;;10.97;83.81;100826.50;5043325;28;20236;-61
2022/05/06 05:32:52;;;;;;;7.07;4.87;;;;;;;11.04;82.92;100829.66;5064836;28;20621;-62
2022/05/06 05:35:17;;;;;;;5.43;4.70;;;;;;;11.25;82.05;100832.16;5057736;28;20539;-62
2022/05/06 05:37:42;;;;;;;5.00;4.50;;;;;;;11.44;80.43;100822.69;5052206;28;20177;-63
2022/05/06 05:40:10;;;;;;;6.80;4.80;;;;;;;11.60;78.71;100829.72;5044213;28;20218;-63
2022/05/06 05:42:36;;;;;;;6.93;4.47;;;;;;;11.68;78.29;100825.00;5065885;28;20612;-61
2022/05/06 05:50:29;;;;;;;6.30;4.23;;;;;;;12.00;73.96;100827.00;5044871;28;20733;-62
2022/05/06 05:52:55;;;;;;;5.83;4.33;;;;;;;12.05;73.29;100836.16;5064212;28;20169;-62
2022/05/06 05:55:21;;;;;;;5.77;4.73;;;;;;;12.24;73.01;100840.41;5071529;28;20184;-61
2022/05/06 05:57:47;;;;;;;4.73;4.17;;;;;;;12.31;70.52;100840.94;5069927;28;20179;-62
2022/05/06 06:00:13;;;;;;;4.70;3.90;;;;;;;12.46;69.49;100839.34;5060080;28;20554;-62
2022/05/06 06:02:38;;;;;;;4.43;4.03;;;;;;;12.66;69.12;100846.88;5032088;28;20181;-60
2022/05/06 06:05:04;;;;;;;6.87;4.03;;;;;;;12.93;66.64;100846.38;5031886;28;20190;-61
2022/05/06 06:07:29;;;;;;;5.53;4.23;;;;;;;12.98;63.70;100846.13;5031055;28;20192;-62
2022/05/06 06:09:54;;;;;;;4.23;3.80;;;;;;;13.04;64.05;100854.38;5031761;28;20194;-61
2022/05/06 06:12:19;;;;;;;7.03;4.03;;;;;;;12.87;62.32;100844.09;5053380;28;20558;-61
2022/05/06 06:14:45;;;;;;;7.53;3.97;;;;;;;12.95;63.79;100843.69;5050097;28;20225;-61
2022/05/06 06:17:10;;;;;;;8.80;4.37;;;;;;;12.87;64.46;100844.09;5051403;28;20193;-61
2022/05/06 06:19:36;;;;;;;4.63;3.60;;;;;;;13.12;63.75;100853.16;5046706;28;20209;-62
2022/05/06 06:22:02;;;;;;;5.50;3.87;;;;;;;13.40;62.27;100850.78;5036401;28;20221;-61
2022/05/06 06:24:30;;;;;;;5.27;4.30;;;;;;;13.42;61.97;100855.88;5030781;28;20265;-61
2022/05/06 06:26:55;;;;;;;6.27;4.50;;;;;;;13.74;61.88;100850.66;5030152;28;20171;-61
2022/05/06 06:29:21;;;;;;;4.43;4.03;;;;;;;14.40;60.25;100843.47;5031683;28;20186;-62
2022/05/06 06:31:46;;;;;;;6.20;4.20;;;;;;;15.29;57.68;100846.81;5034768;28;20745;-61
2022/05/06 06:34:11;;;;;;;6.10;3.50;;;;;;;15.98;52.01;100850.19;5051671;28;20235;-61
2022/05/06 06:36:36;;;;;;;4.23;3.73;;;;;;;16.96;50.39;100850.69;5037383;28;20189;-60
2022/05/06 06:39:02;;;;;;;3.57;3.23;;;;;;;18.87;42.90;100859.31;5050370;28;20536;-61
2022/05/06 06:41:28;;;;;;;7.37;3.40;;;;;;;20.25;39.18;100857.00;5051449;28;20221;-62
2022/05/06 06:43:54;;;;;;;5.83;3.97;;;;;;;20.66;37.99;100856.28;5056196;28;20620;-61
2022/05/06 06:46:19;;;;;;;10.87;3.57;;;;;;;23.52;32.94;100861.88;5049926;28;20173;-60
2022/05/06 06:48:45;;;;;;;7.03;2.73;;;;;;;24.89;30.41;100862.28;5051621;28;20705;-60
2022/05/06 06:51:10;;;;;;;5.67;2.80;;;;;;;24.23;29.47;100861.94;5049908;28;20303;-61
2022/05/06 06:53:35;;;;;;;7.73;6.13;;;;;;;23.58;30.89;100866.50;5079642;28;20177;-61
2022/05/06 06:56:01;;;;;;;5.33;2.80;;;;;;;23.93;29.92;100869.31;5070771;28;20180;-61
2022/05/06 06:58:26;;;;;;;4.32;3.10;;;;;;;24.24;29.40;100858.34;5071138;28;20645;-61
2022/05/06 07:00:52;;;;;;;7.50;2.88;;;;;;;23.98;30.02;100870.47;5050386;28;20232;-60
2022/05/06 07:03:18;;;;;;;4.13;3.28;;;;;;;25.45;28.27;100865.25;5070978;28;20188;-61
2022/05/06 07:13:55;;;;;;;5.00;2.60;;;;;;;24.67;29.25;100872.38;5074819;28;20671;-60
2022/05/06 07:16:20;;;;;;;5.80;2.20;;;;;;;25.98;26.73;100870.19;5074148;28;20228;-60
2022/05/06 07:18:46;;;;;;;4.30;2.22;;;;;;;26.80;25.21;100874.50;5080337;28;20578;-61
2022/05/06 07:21:11;;;;;;;3.65;2.28;;;;;;;26.88;26.00;100877.09;5063685;28;20240;-60
2022/05/06 07:23:36;;;;;;;6.97;2.28;;;;;;;27.02;24.96;100872.91;5073794;28;20208;-60
2022/05/06 07:26:02;;;;;;;4.60;2.47;;;;;;;26.69;26.57;100876.50;5061855;28;20714;-59
2022/05/06 07:28:27;;;;;;;5.00;2.38;;;;;;;26.21;27.01;100878.25;5054747;28;20180;-59
2022/05/06 07:30:52;;;;;;;3.30;1.83;;;;;;;25.99;26.76;100875.31;5029348;28;20300;-59
2022/05/06 07:33:18;;;;;;;2.33;2.08;;;;;;;25.23;28.05;100875.38;5056502;28;20176;-60
2022/05/06 07:35:43;;;;;;;3.40;1.80;;;;;;;25.18;28.39;100869.78;5068522;28;20261;-59
2022/05/06 07:38:08;;;;;;;6.13;2.28;;;;;;;25.55;28.36;100873.81;5072785;28;20276;-59
2022/05/06 07:40:34;;;;;;;6.60;2.20;;;;;;;25.59;28.58;100871.69;5063895;28;20264;-60
2022/05/06 07:42:59;;;;;;;4.50;2.13;;;;;;;25.20;28.65;100875.69;5073643;28;20176;-59
2022/05/06 07:45:25;;;;;;;4.15;2.13;;;;;;;25.54;27.62;100880.06;5074336;28;20585;-59
2022/05/06 07:47:50;;;;;;;3.80;1.70;;;;;;;25.65;27.58;100878.94;5074027;28;20577;-59
2022/05/06 07:50:15;;;;;;;7.18;2.30;;;;;;;26.29;27.58;100872.16;5048684;28;20196;-58
2022/05/06 07:52:41;;;;;;;2.88;1.90;;;;;;;26.10;27.15;100874.97;5073635;28;20230;-59
2022/05/06 07:55:10;;;;;;;2.83;2.00;;;;;;;25.55;27.41;100873.81;5074340;28;20180;-59
2022/05/06 07:57:35;;;;;;;6.13;2.10;;;;;;;24.53;29.21;100871.13;5073531;28;20233;-59
2022/05/06 08:00:01;;;;;;;4.20;2.33;;;;;;;24.65;28.97;100872.53;5073692;28;20718;-58
2022/05/06 08:05:11;;;;;;;2.92;2.00;;;;;;;25.05;28.96;100862.34;5066093;28;20197;-58
2022/05/06 08:07:36;;;;;;;4.18;2.20;;;;;;;25.48;27.69;100872.81;5052998;28;20647;-58
2022/05/06 08:10:06;;;;;;;4.07;1.90;;;;;;;24.98;27.86;100877.09;5052129;28;20668;-58
2022/05/06 08:12:32;;;;;;;2.30;1.60;;;;;;;25.28;28.63;100875.72;5067431;28;20276;-59
2022/05/06 08:14:57;;;;;;;12.20;2.30;;;;;;;24.39;28.88;100866.47;5073895;28;20636;-59
2022/05/06 08:17:23;;;;;;;4.93;2.20;;;;;;;23.95;29.72;100872.56;5064944;28;20182;-59
2022/05/06 08:19:48;;;;;;;2.22;1.90;;;;;;;23.73;30.02;100863.34;5058624;28;20672;-59
2022/05/06 08:22:13;;;;;;;2.65;1.88;;;;;;;23.79;30.12;100868.81;5058690;28;20235;-60
2022/05/06 08:24:39;;;;;;;2.25;1.60;;;;;;;25.17;28.38;100868.13;5061410;28;20228;-60
2022/05/06 08:27:04;;;;;;;3.47;2.13;;;;;;;24.42;28.54;100874.88;5057744;28;20205;-59
2022/05/06 08:29:29;;;;;;;3.60;1.65;;;;;;;26.07;26.75;100864.78;5073462;28;20177;-60
2022/05/06 08:31:55;;;;;;;4.43;2.13;;;;;;;24.66;27.84;100873.38;5051173;28;20221;-59
2022/05/06 08:34:21;;;;;;;2.17;1.60;;;;;;;25.67;26.93;100871.69;5088274;28;20191;-58
2022/05/06 08:36:47;;;;;;;2.70;1.70;;;;;;;25.09;27.29;100871.56;5073015;28;20173;-60
2022/05/06 08:39:13;;;;;;;2.97;1.95;;;;;;;24.08;28.47;100880.91;5073455;28;20280;-58
2022/05/06 08:41:40;;;;;;;6.05;1.80;;;;;;;26.16;25.98;100881.41;5061825;28;20232;-59
2022/05/06 08:52:29;;;;;;;2.97;1.77;;;;;;;21.70;31.46;100874.34;5058579;28;20240;-60
2022/05/06 08:54:55;;;;;;;2.67;1.30;;;;;;;23.13;29.76;100870.78;5072594;28;20173;-59
2022/05/06 08:57:20;;;;;;;2.30;1.70;;;;;;;24.65;26.01;100864.66;5071908;28;20218;-59
2022/05/06 08:59:50;;;;;;;3.25;1.73;;;;;;;24.40;25.89;100855.78;5054853;28;20632;-59
2022/05/06 09:02:16;;;;;;;2.87;1.40;;;;;;;24.29;26.40;100861.31;5057807;28;20235;-59
2022/05/06 09:04:41;;;;;;;1.77;1.45;;;;;;;25.29;25.57;100855.47;5060704;28;20639;-59
2022/05/06 09:07:14;;;;;;;3.92;1.30;;;;;;;28.10;23.20;100860.56;5052499;28;20177;-60
2022/05/06 09:09:40;;;;;;;3.45;1.50;;;;;;;28.24;21.85;100861.56;5070375;28;20765;-60
2022/05/06 09:17:45;;;;;;;4.30;1.40;;;;;;;26.15;23.14;100863.94;5069164;28;20207;-59
2022/05/06 09:20:19;;;;;;;2.85;1.17;;;;;;;26.62;23.09;100862.31;5062008;28;20663;-60
2022/05/06 09:22:44;;;;;;;2.67;1.02;;;;;;;27.46;21.51;100859.13;5071439;28;20632;-60
2022/05/06 09:25:09;;;;;;;2.53;1.48;;;;;;;27.48;20.99;100867.69;5072165;28;20188;-59
2022/05/06 09:27:35;;;;;;;2.45;1.30;;;;;;;26.18;23.09;100862.78;5068498;28;20185;-58
2022/05/06 09:30:08;;;;;;;1.52;1.23;;;;;;;27.11;23.72;100871.03;5061948;28;20299;-59
2022/05/06 09:32:33;;;;;;;3.22;1.40;;;;;;;28.43;21.41;100868.16;5059904;28;20251;-60
2022/05/06 09:35:13;;;;;;;2.08;1.17;;;;;;;27.25;22.28;100870.28;5052632;28;20267;-59
2022/05/06 09:37:41;;;;;;;1.77;0.95;;;;;;;28.67;20.99;100860.91;5050367;28;20181;-61
2022/05/06 09:40:08;;;;;;;1.95;1.27;;;;;;;27.92;22.35;100867.97;5042222;28;20207;-60
2022/05/06 09:42:37;;;;;;;3.42;1.40;;;;;;;29.44;20.75;100864.84;5066811;28;20177;-60
2022/05/06 09:45:02;;;;;;;2.17;1.20;;;;;;;29.27;20.32;100869.56;5052085;28;20177;-61
2022/05/06 09:47:28;;;;;;;3.15;1.10;;;;;;;30.38;19.68;100862.91;5067856;28;20176;-60
2022/05/06 09:49:53;;;;;;;2.42;1.10;;;;;;;30.26;18.89;100864.47;5072233;28;20175;-60
2022/05/06 09:52:19;;;;;;;2.08;1.00;;;;;;;30.21;18.29;100862.38;5060610;28;20617;-59
2022/05/06 09:54:46;;;;;;;2.63;1.30;;;;;;;29.10;20.37;100868.16;5072423;28;20177;-60
2022/05/06 09:57:13;;;;;;;1.05;0.93;;;;;;;27.93;20.33;100866.97;5071687;28;20191;-61
2022/05/06 09:59:39;;;;;;;1.45;1.08;;;;;;;30.52;18.98;100866.47;5071834;28;20200;-60
2022/05/06 10:02:06;;;;;;;3.60;1.13;;;;;;;29.62;18.85;100859.09;5060303;28;20751;-60
2022/05/06 10:04:32;;;;;;;3.50;1.17;;;;;;;28.49;20.04;100859.47;5051918;28;20260;-61
2022/05/06 10:07:03;;;;;;;2.55;1.38;;;;;;;25.62;22.76;100856.34;5051223;28;20602;-59
2022/05/06 10:09:33;;;;;;;2.58;1.45;;;;;;;25.39;23.90;100866.72;5051735;28;20189;-61
2022/05/06 10:12:02;;;;;;;1.25;1.10;;;;;;;24.31;24.43;100865.44;5056917;28;20287;-61
2022/05/06 10:14:28;;;;;;;1.92;1.50;;;;;;;24.71;24.38;100859.75;5067656;28;20509;-60
2022/05/06 10:16:53;;;;;;;1.55;1.00;;;;;;;27.25;22.50;100854.41;5071362;28;20219;-60
2022/05/06 10:19:26;;;;;;;2.70;1.35;;;;;;;29.04;20.35;100853.00;5071725;28;20203;-60
2022/05/06 10:21:52;;;;;;;3.88;1.00;;;;;;;29.62;19.61;100856.44;5076079;28;20306;-61
2022/05/06 10:24:18;;;;;;;1.77;1.48;;;;;;;26.80;22.09;100867.38;5072679;28;20207;-60
2022/05/06 10:26:51;;;;;;;2.60;1.58;;;;;;;26.85;22.14;100857.13;5059659;28;20196;-60
2022/05/06 10:32:25;;;;;;;1.50;1.35;;;;;;;25.23;24.34;100849.06;5065700;28;20313;-59
2022/05/06 10:35:03;;;;;;;4.00;1.60;;;;;;;25.40;23.96;100849.94;5057142;28;20596;-60
2022/05/06 10:37:41;;;;;;;1.90;1.48;;;;;;;25.68;23.77;100843.53;5054570;28;20185;-60
2022/05/06 10:40:25;;;;;;;1.92;1.50;;;;;;;23.56;26.71;100844.00;5045766;28;20243;-60
2022/05/06 10:42:51;;;;;;;2.85;1.75;;;;;;;22.10;28.12;100844.50;5067879;28;20185;-60
2022/05/06 10:45:34;;;;;;;2.17;1.83;;;;;;;20.89;30.90;100844.69;5072350;28;20191;-60
2022/05/06 10:48:00;;;;;;;1.97;1.37;;;;;;;20.30;31.38;100838.34;5075076;28;20665;-60
2022/05/06 10:50:29;;;;;;;2.43;1.50;;;;;;;20.00;31.54;100835.53;5063990;28;20654;-60
2022/05/06 10:53:00;;;;;;;2.10;1.40;;;;;;;19.63;31.92;100837.72;5073990;28;20172;-61
2022/05/06 10:55:26;;;;;;;2.40;1.73;;;;;;;19.71;32.88;100817.06;5075313;28;20181;-61
2022/05/06 10:58:00;;;;;;;3.23;1.80;;;;;;;19.92;32.59;100821.47;5073169;28;20176;-61
2022/05/06 11:00:28;;;;;;;2.60;1.67;;;;;;;19.74;32.44;100815.97;5054065;28;20221;-60
2022/05/06 11:02:54;;;;;;;2.43;1.80;;;;;;;19.88;32.33;100826.13;5061019;28;20180;-60
2022/05/06 11:05:21;;;;;;;2.63;1.37;;;;;;;20.10;32.32;100832.19;5073306;28;20185;-60
2022/05/06 11:07:48;;;;;;;1.87;1.40;;;;;;;19.93;31.60;100821.38;5073969;28;20184;-61
2022/05/06 11:10:19;;;;;;;1.73;1.60;;;;;;;19.60;32.18;100827.56;5064175;28;20207;-59
2022/05/06 11:12:49;;;;;;;5.07;1.63;;;;;;;19.38;32.75;100815.41;5073459;28;20169;-60
2022/05/06 11:15:17;;;;;;;1.70;1.20;;;;;;;19.63;32.88;100811.63;5065963;28;20225;-61
2022/05/06 11:17:44;;;;;;;1.87;1.40;;;;;;;19.52;32.04;100821.16;5087622;28;20180;-60
2022/05/06 11:20:29;;;;;;;3.90;1.30;;;;;;;19.29;32.13;100823.00;5064953;28;20211;-61
2022/05/06 11:23:00;;;;;;;1.63;1.40;;;;;;;19.27;31.86;100821.47;5083086;28;20177;-60
2022/05/06 11:25:28;;;;;;;1.60;1.50;;;;;;;19.14;32.39;100809.41;5073249;28;20546;-60
2022/05/06 11:27:55;;;;;;;2.67;1.90;;;;;;;18.95;33.44;100807.44;5074080;28;20165;-59
2022/05/06 11:30:23;;;;;;;3.43;1.70;;;;;;;19.49;32.83;100810.16;5040694;28;20176;-60
2022/05/06 11:32:59;;;;;;;1.70;1.37;;;;;;;19.77;31.99;100806.13;5059576;28;20165;-60
2022/05/06 11:35:42;;;;;;;3.93;1.73;;;;;;;19.86;32.53;100807.16;5074593;28;20176;-60
2022/05/06 11:38:07;;;;;;;1.80;1.37;;;;;;;19.94;31.47;100823.00;5073854;28;20202;-61
2022/05/06 11:40:35;;;;;;;3.90;1.50;;;;;;;19.59;31.91;100808.44;5063498;28;20240;-60
2022/05/06 11:43:03;;;;;;;1.83;1.40;;;;;;;19.60;31.65;100807.50;5065078;28;20204;-60
2022/05/06 11:48:15;;;;;;;2.03;1.27;;;;;;;19.61;31.27;100792.66;5053756;28;20651;-63
2022/05/06 11:50:42;;;;;;;2.27;1.60;;;;;;;19.72;31.79;100795.22;5048769;28;20256;-61
2022/05/06 11:53:09;;;;;;;1.50;1.30;;;;;;;19.59;31.91;100784.13;5053169;28;20231;-61
2022/05/06 11:55:36;;;;;;;13.80;1.60;;;;;;;19.79;31.49;100790.31;5053967;28;20173;-61
2022/05/06 11:58:05;;;;;;;2.80;1.50;;;;;;;19.93;31.77;100795.25;5056391;28;20178;-61
2022/05/06 12:00:32;;;;;;;2.23;1.53;;;;;;;19.93;31.24;100792.66;5045396;28;20243;-62
2022/05/06 12:03:04;;;;;;;2.43;1.57;;;;;;;19.74;31.35;100795.91;5067722;28;20181;-62
2022/05/06 12:05:30;;;;;;;1.83;1.37;;;;;;;19.63;32.37;100785.53;5060446;28;20219;-61
2022/05/06 12:07:55;;;;;;;1.73;1.43;;;;;;;19.63;31.53;100791.56;5056902;28;20244;-63